Olympic Scout — WDD7216 — position and weather

sailwx.info

Track history (hours):
 
Tides and Currents Weather Stations Pressure Air Temp Water Temp Dewpoint Dewpoint Depression Visibility Wind Speed Wind Dir Waves Ship Positions

Olympic Scout

Owner: Harley Marine Services, Inc., Seattle, WA. More information available from US FCC via Universal Licensing System and Coast Guard Vessel Documentation Center.

Last reported at 2018-Feb-25 18:00 UTC. Time now 2018-Feb-25 18:11 UTC.
Position N 47°17' W 122°25'.

Length 31 m; draft 0.3 m.

Type: Tug. MMSI: 366998440.

Date/timePositionNaut miles runAvg speedWind from/ knotsBaromVisibWave heightAir tempDewpointWater temp
2018-Feb-25 18:00N 47°17' W 122°25'0 0.0
2018-Feb-25 17:30N 47°17' W 122°25'0 0.0
2018-Feb-25 17:00N 47°17' W 122°25'0 0.0
2018-Feb-25 16:30N 47°17' W 122°25'0 0.0
2018-Feb-25 16:00N 47°17' W 122°25'0 0.0
2018-Feb-25 15:30N 47°17' W 122°25'0 0.0
2018-Feb-25 15:00N 47°17' W 122°25'0 0.0
2018-Feb-25 14:30N 47°17' W 122°25'0 0.1
2018-Feb-25 14:00N 47°17' W 122°25'0 0.1
2018-Feb-25 13:30N 47°17' W 122°25'0 0.0
2018-Feb-25 13:00N 47°17' W 122°25'1 3.0
2018-Feb-25 12:30N 47°17' W 122°27'1 2.6
2018-Feb-25 12:00N 47°17' W 122°25'0 0.4
2018-Feb-25 11:30N 47°17' W 122°25'0 0.1
2018-Feb-25 10:55N 47°17' W 122°25'1 2.2
2018-Feb-25 10:30N 47°17' W 122°26'2 3.1
2018-Feb-25 10:00N 47°18' W 122°27'2 4.5
2018-Feb-25 09:30N 47°20' W 122°27'3 5.1
2018-Feb-25 09:00N 47°22' W 122°24'2 4.4
2018-Feb-25 08:30N 47°24' W 122°23'3 5.9
2018-Feb-25 08:00N 47°27' W 122°25'3 5.7
2018-Feb-25 07:30N 47°29' W 122°26'3 5.6
2018-Feb-25 07:00N 47°32' W 122°27'3 5.3
2018-Feb-25 06:30N 47°35' W 122°26'2 5.0
2018-Feb-25 06:00N 47°36' W 122°23'1 2.6
2018-Feb-25 05:30N 47°35' W 122°21'0 0.1
2018-Feb-25 05:00N 47°35' W 122°21'0 0.0
2018-Feb-25 03:39N 47°35' W 122°21'0 0.2
2018-Feb-25 03:24N 47°35' W 122°21'0 0.0
2018-Feb-25 02:57N 47°35' W 122°21'0 0.0
2018-Feb-25 02:28N 47°35' W 122°21'1 2.0
2018-Feb-25 02:00N 47°34' W 122°21'0 0.1
2018-Feb-25 01:30N 47°34' W 122°21'0 0.0
2018-Feb-25 01:00N 47°34' W 122°21'0 0.0
2018-Feb-25 00:30N 47°34' W 122°21'0 0.0
2018-Feb-25 00:00N 47°34' W 122°21'0 0.0
2018-Feb-24 23:30N 47°34' W 122°21'0 0.0
2018-Feb-24 22:59N 47°34' W 122°21'0 0.0
2018-Feb-24 22:30N 47°34' W 122°21'0 0.0
2018-Feb-24 22:00N 47°34' W 122°21'0 0.0
2018-Feb-24 21:30N 47°34' W 122°21'0 0.0
2018-Feb-24 21:00N 47°34' W 122°21'0 0.0
2018-Feb-24 20:30N 47°34' W 122°21'0 0.1
2018-Feb-24 19:06N 47°35' W 122°21'0 2.8
2018-Feb-24 18:59N 47°35' W 122°21'1 1.5
2018-Feb-24 18:30N 47°36' W 122°21'0 0.3
2018-Feb-24 18:00N 47°35' W 122°21'0 0.2
2018-Feb-24 17:22N 47°35' W 122°21'0 0.8
2018-Feb-24 17:00N 47°36' W 122°21'2 3.1
2018-Feb-24 16:31N 47°36' W 122°23'3 6.1
2018-Feb-24 16:00N 47°34' W 122°26'4 7.3
2018-Feb-24 15:30N 47°30' W 122°25'4 7.6
2018-Feb-24 15:00N 47°26' W 122°23'4 7.5
2018-Feb-24 14:31N 47°23' W 122°21'4 7.3
2018-Feb-24 14:00N 47°20' W 122°25'3 6.3
2018-Feb-24 13:30N 47°18' W 122°27'2 4.6
2018-Feb-24 13:00N 47°16' W 122°24'1 1.0
2018-Feb-24 12:30N 47°16' W 122°24'0 0.5
2018-Feb-24 11:59N 47°16' W 122°23'0 0.0
2018-Feb-24 11:05N 47°16' W 122°23'0 0.4
2018-Feb-24 10:59N 47°16' W 122°23'0 0.0
2018-Feb-24 09:44N 47°16' W 122°23'0 0.0
2018-Feb-24 09:29N 47°16' W 122°23'0 0.0
2018-Feb-24 08:59N 47°16' W 122°23'0 0.0
2018-Feb-24 08:23N 47°16' W 122°23'0 0.1
2018-Feb-24 07:59N 47°16' W 122°23'0 0.1
2018-Feb-24 07:29N 47°16' W 122°23'0 0.0
2018-Feb-24 06:59N 47°16' W 122°23'0 0.1
2018-Feb-24 06:17N 47°16' W 122°23'0 0.1
2018-Feb-24 05:59N 47°16' W 122°23'0 0.1
2018-Feb-24 05:23N 47°16' W 122°23'0 0.1
2018-Feb-24 04:59N 47°16' W 122°23'0 0.1
2018-Feb-24 04:26N 47°16' W 122°23'0 0.1
2018-Feb-24 03:59N 47°16' W 122°23'0 0.0
2018-Feb-24 03:29N 47°16' W 122°23'0 0.0
2018-Feb-24 02:59N 47°16' W 122°23'0 0.6
2018-Feb-24 02:30N 47°16' W 122°24'0 0.2
2018-Feb-24 02:00N 47°16' W 122°23'2 3.3
2018-Feb-24 01:30N 47°17' W 122°25'0 0.2
2018-Feb-24 01:00N 47°17' W 122°25'0 0.5
2018-Feb-24 00:30N 47°17' W 122°26'2 0.8
2018-Feb-23 21:26N 47°16' W 122°23'0 0.1
2018-Feb-23 20:53N 47°16' W 122°23'1 0.6
2018-Feb-23 20:01N 47°16' W 122°24'0 5.5
2018-Feb-23 20:00N 47°16' W 122°24'0 0.9
2018-Feb-23 19:30N 47°16' W 122°23'0 0.0
2018-Feb-23 18:44N 47°16' W 122°23'0 0.0
2018-Feb-23 18:27N 47°16' W 122°23'0 0.0
2018-Feb-23 18:00N 47°16' W 122°23'0 0.0
2018-Feb-23 17:29N 47°16' W 122°23'0 0.0
2018-Feb-23 16:58N 47°16' W 122°23'0 0.0
2018-Feb-23 16:27N 47°16' W 122°23'0 0.0
2018-Feb-23 15:58N 47°16' W 122°23'0 0.0
2018-Feb-23 15:19N 47°16' W 122°23'0 0.0
2018-Feb-23 14:40N 47°16' W 122°23'0 0.0
2018-Feb-23 14:15N 47°16' W 122°23'0 0.3
2018-Feb-23 13:57N 47°16' W 122°23'1 2.1
2018-Feb-23 13:25N 47°16' W 122°24'1 0.5
2018-Feb-23 12:11N 47°17' W 122°23'0 0.1
2018-Feb-23 11:54N 47°17' W 122°23'0 0.0
2018-Feb-23 11:24N 47°17' W 122°23'0 0.0
2018-Feb-23 10:59N 47°17' W 122°23'0 0.0
2018-Feb-23 10:22N 47°17' W 122°23'0 0.0
2018-Feb-23 08:39N 47°17' W 122°23'1 0.1
2018-Feb-23 01:58N 47°17' W 122°25'1 3.1
2018-Feb-23 01:30N 47°16' W 122°23'1 0.5
2018-Feb-22 23:44N 47°16' W 122°24'1 3.3
2018-Feb-22 23:29N 47°16' W 122°23'1 1.4
2018-Feb-22 22:51N 47°16' W 122°24'0 0.0
2018-Feb-22 22:15N 47°16' W 122°24'0 0.1
2018-Feb-22 21:58N 47°16' W 122°24'0 0.1
2018-Feb-22 21:24N 47°16' W 122°24'0 0.1
2018-Feb-22 21:00N 47°16' W 122°24'0 0.0
2018-Feb-22 20:30N 47°16' W 122°24'0 0.1
2018-Feb-22 19:59N 47°16' W 122°24'0 0.0
2018-Feb-22 19:30N 47°16' W 122°24'1 1.5
2018-Feb-22 18:55N 47°16' W 122°23'0 0.0
2018-Feb-22 11:35N 47°16' W 122°23'0 4.0
2018-Feb-22 11:30N 47°16' W 122°23'1 1.9
2018-Feb-22 10:54N 47°17' W 122°25'0 0.0
2018-Feb-22 10:30N 47°17' W 122°25'0 0.0
2018-Feb-22 10:00N 47°17' W 122°25'0 0.0
2018-Feb-22 09:30N 47°17' W 122°25'0 0.0
2018-Feb-22 09:00N 47°17' W 122°25'0 0.0
2018-Feb-22 08:30N 47°17' W 122°25'0 0.0
2018-Feb-22 08:00N 47°17' W 122°25'0 0.0
2018-Feb-22 07:30N 47°17' W 122°25'0 0.0
2018-Feb-22 07:00N 47°17' W 122°25'0 0.0
2018-Feb-22 06:30N 47°17' W 122°25'0 0.0
2018-Feb-22 06:00N 47°17' W 122°25'0 0.0
2018-Feb-22 05:30N 47°17' W 122°25'0 0.0
2018-Feb-22 05:00N 47°17' W 122°25'0 0.0
2018-Feb-22 04:30N 47°17' W 122°25'0 0.0
2018-Feb-22 04:00N 47°17' W 122°25'0 0.1
2018-Feb-22 03:30N 47°17' W 122°25'2 3.1
2018-Feb-22 03:00N 47°16' W 122°23'2 1.8
2018-Feb-22 01:44N 47°17' W 122°25'1 3.7
2018-Feb-22 01:24N 47°16' W 122°25'0 0.0
2018-Feb-22 00:57N 47°16' W 122°25'1 3.0
2018-Feb-22 00:30N 47°16' W 122°23'0 0.0
2018-Feb-22 00:00N 47°16' W 122°23'0 0.0
2018-Feb-21 23:30N 47°16' W 122°23'0 0.0
2018-Feb-21 23:00N 47°16' W 122°23'0 0.0
2018-Feb-21 22:30N 47°16' W 122°23'0 0.0
2018-Feb-21 22:00N 47°16' W 122°23'0 0.0
2018-Feb-21 21:30N 47°16' W 122°23'0 0.0
2018-Feb-21 21:00N 47°16' W 122°23'0 0.0
2018-Feb-21 20:30N 47°16' W 122°23'0 0.0
2018-Feb-21 19:58N 47°16' W 122°23'0 0.0
2018-Feb-21 19:27N 47°16' W 122°23'0 0.0
2018-Feb-21 18:47N 47°16' W 122°23'0 0.0
2018-Feb-21 17:49N 47°16' W 122°23'0 0.0
2018-Feb-21 17:27N 47°16' W 122°23'0 0.0
2018-Feb-21 17:00N 47°16' W 122°23'0 0.0
2018-Feb-21 16:30N 47°16' W 122°23'0 0.1
2018-Feb-21 15:56N 47°16' W 122°23'0 0.1
2018-Feb-21 15:29N 47°16' W 122°23'0 0.0
2018-Feb-21 15:00N 47°16' W 122°23'0 0.0
2018-Feb-21 14:30N 47°16' W 122°23'0 0.0
2018-Feb-21 14:00N 47°16' W 122°23'2 3.5
2018-Feb-21 13:30N 47°17' W 122°25'1 2.9
2018-Feb-21 13:00N 47°16' W 122°26'1 2.7
2018-Feb-21 12:30N 47°17' W 122°25'2 1.8
2018-Feb-21 11:32N 47°16' W 122°23'0 0.0
2018-Feb-21 11:30N 47°16' W 122°23'0 0.0
2018-Feb-21 08:58N 47°16' W 122°23'0 0.0
2018-Feb-21 08:28N 47°16' W 122°23'0 0.0
2018-Feb-21 07:52N 47°16' W 122°23'0 0.0
2018-Feb-21 07:23N 47°16' W 122°23'0 0.0
2018-Feb-21 06:37N 47°16' W 122°23'1 4.0
2018-Feb-21 06:30N 47°16' W 122°24'2 2.6
2018-Feb-21 05:49N 47°15' W 122°26'0 1.4
2018-Feb-21 05:30N 47°16' W 122°26'1 2.2
2018-Feb-21 05:00N 47°17' W 122°26'2 1.4
2018-Feb-21 03:24N 47°16' W 122°23'1 3.6
2018-Feb-21 03:00N 47°16' W 122°25'1 1.0
2018-Feb-21 02:03N 47°17' W 122°25'0 3.1
2018-Feb-21 01:56N 47°17' W 122°25'1 2.6
2018-Feb-21 01:30N 47°16' W 122°25'0 0.6
2018-Feb-21 01:00N 47°16' W 122°25'2 0.3
2018-Feb-20 19:54N 47°16' W 122°23'0 0.0
2018-Feb-20 17:32N 47°16' W 122°23'0 0.2
2018-Feb-20 17:16N 47°16' W 122°23'0 0.0
2018-Feb-20 16:57N 47°16' W 122°23'0 0.0
2018-Feb-20 14:32N 47°16' W 122°23'0 0.1
2018-Feb-20 14:26N 47°16' W 122°23'0 0.0
2018-Feb-20 13:45N 47°16' W 122°23'0 0.0
2018-Feb-20 13:21N 47°16' W 122°23'0 0.0
2018-Feb-20 12:52N 47°16' W 122°23'0 0.1
2018-Feb-20 12:20N 47°16' W 122°23'0 0.0
2018-Feb-20 11:47N 47°16' W 122°23'0 0.0
2018-Feb-20 11:17N 47°16' W 122°23'0 0.0
2018-Feb-20 11:01N 47°16' W 122°23'0 0.1
2018-Feb-20 10:29N 47°16' W 122°23'0 0.0
2018-Feb-20 10:01N 47°16' W 122°23'0 0.7
2018-Feb-20 09:29N 47°16' W 122°23'2 0.3
2018-Feb-20 04:08N 47°17' W 122°25'0 2.0
2018-Feb-20 04:00N 47°17' W 122°26'1 0.4
2018-Feb-20 01:28N 47°16' W 122°25'0 0.0
2018-Feb-20 00:59N 47°16' W 122°25'0 0.0
2018-Feb-20 00:14N 47°16' W 122°25'0 0.0
2018-Feb-19 22:09N 47°16' W 122°25'1 4.7
2018-Feb-19 21:59N 47°17' W 122°25'1 1.3
2018-Feb-19 21:24N 47°16' W 122°25'0 0.0
2018-Feb-19 21:00N 47°16' W 122°25'0 0.0
2018-Feb-19 20:30N 47°16' W 122°25'0 0.0
2018-Feb-19 20:00N 47°16' W 122°25'0 0.0
2018-Feb-19 19:29N 47°16' W 122°25'0 0.0
2018-Feb-19 19:00N 47°16' W 122°25'0 0.0
2018-Feb-19 18:30N 47°16' W 122°25'0 0.0
2018-Feb-19 17:42N 47°16' W 122°25'0 0.0
2018-Feb-19 17:25N 47°16' W 122°25'0 0.0
2018-Feb-19 16:54N 47°16' W 122°25'0 0.0
2018-Feb-19 16:30N 47°16' W 122°25'0 0.0
2018-Feb-19 15:58N 47°16' W 122°25'0 0.0
2018-Feb-19 15:29N 47°16' W 122°25'0 0.0
2018-Feb-19 15:00N 47°16' W 122°25'0 0.0
2018-Feb-19 14:27N 47°16' W 122°25'0 0.0
2018-Feb-19 14:00N 47°16' W 122°25'0 0.0
2018-Feb-19 13:25N 47°16' W 122°25'0 0.0
2018-Feb-19 12:59N 47°16' W 122°25'0 0.0
2018-Feb-19 12:30N 47°16' W 122°25'0 0.0
2018-Feb-19 11:57N 47°16' W 122°25'0 0.0
2018-Feb-19 11:30N 47°16' W 122°25'0 0.0
2018-Feb-19 11:00N 47°16' W 122°25'0 0.0
2018-Feb-19 10:29N 47°16' W 122°25'0 0.0
2018-Feb-19 10:00N 47°16' W 122°25'0 0.0
2018-Feb-19 09:30N 47°16' W 122°25'0 0.0
2018-Feb-19 09:01N 47°16' W 122°25'0 0.0
2018-Feb-19 08:30N 47°16' W 122°25'0 0.0
2018-Feb-19 08:00N 47°16' W 122°25'0 0.1
2018-Feb-19 07:30N 47°16' W 122°25'0 0.4
2018-Feb-19 06:58N 47°16' W 122°25'0 0.7
2018-Feb-19 06:30N 47°16' W 122°25'0 0.2
2018-Feb-19 05:53N 47°16' W 122°25'1 1.7
2018-Feb-19 05:30N 47°17' W 122°25'0 0.7
2018-Feb-19 05:00N 47°17' W 122°25'0 0.1
2018-Feb-19 04:29N 47°16' W 122°25'0 0.3
2018-Feb-19 04:01N 47°17' W 122°25'0 0.0
2018-Feb-19 03:30N 47°17' W 122°25'0 0.0
2018-Feb-19 03:00N 47°17' W 122°25'0 0.0
2018-Feb-19 02:30N 47°17' W 122°25'0 0.0
2018-Feb-19 02:01N 47°17' W 122°25'0 0.0
2018-Feb-19 01:30N 47°17' W 122°25'0 0.0
2018-Feb-19 01:00N 47°17' W 122°25'0 0.0
2018-Feb-19 00:28N 47°17' W 122°25'0 0.0
2018-Feb-19 00:00N 47°17' W 122°25'0 0.0
2018-Feb-18 23:29N 47°17' W 122°25'0 0.0
2018-Feb-18 22:59N 47°17' W 122°25'0 0.0
2018-Feb-18 22:29N 47°17' W 122°25'0 0.0
2018-Feb-18 22:00N 47°17' W 122°25'0 0.0
2018-Feb-18 21:30N 47°17' W 122°25'0 0.0
2018-Feb-18 20:57N 47°17' W 122°25'0 0.0
2018-Feb-18 20:30N 47°17' W 122°25'0 0.0
2018-Feb-18 20:01N 47°17' W 122°25'0 0.0
2018-Feb-18 19:21N 47°17' W 122°25'0 0.0
2018-Feb-18 18:51N 47°17' W 122°25'0 0.1
2018-Feb-18 18:28N 47°17' W 122°25'0 0.1
2018-Feb-18 17:49N 47°17' W 122°25'1 3.1
2018-Feb-18 17:31N 47°17' W 122°26'2 3.6
2018-Feb-18 17:00N 47°19' W 122°28'3 5.0
2018-Feb-18 16:31N 47°21' W 122°26'3 5.4
2018-Feb-18 16:00N 47°23' W 122°23'3 5.0
2018-Feb-18 15:30N 47°25' W 122°23'3 5.8
2018-Feb-18 15:01N 47°28' W 122°25'3 5.5
2018-Feb-18 14:30N 47°30' W 122°26'3 5.6
2018-Feb-18 14:01N 47°33' W 122°27'3 5.6
2018-Feb-18 13:31N 47°36' W 122°25'3 5.1
2018-Feb-18 13:00N 47°36' W 122°21'0 0.9
2018-Feb-18 12:29N 47°35' W 122°21'0 0.0
2018-Feb-18 12:01N 47°35' W 122°21'1 1.9
2018-Feb-18 11:30N 47°34' W 122°21'0 0.1
2018-Feb-18 11:00N 47°34' W 122°21'0 0.0
2018-Feb-18 10:30N 47°34' W 122°21'0 0.0
2018-Feb-18 10:01N 47°34' W 122°21'0 0.0
2018-Feb-18 09:31N 47°34' W 122°21'0 0.0
2018-Feb-18 09:00N 47°34' W 122°21'0 0.0
2018-Feb-18 08:30N 47°34' W 122°21'0 0.0
2018-Feb-18 08:00N 47°34' W 122°21'0 0.1
2018-Feb-18 07:30N 47°34' W 122°21'0 0.1
2018-Feb-18 07:00N 47°34' W 122°21'0 0.0
2018-Feb-18 06:31N 47°34' W 122°21'0 0.0
2018-Feb-18 06:00N 47°34' W 122°21'0 0.0
2018-Feb-18 05:31N 47°34' W 122°21'1 1.8
2018-Feb-18 05:00N 47°35' W 122°21'0 0.0
2018-Feb-18 04:29N 47°35' W 122°21'0 0.0
2018-Feb-18 03:57N 47°35' W 122°21'0 0.1
2018-Feb-18 03:28N 47°35' W 122°21'0 0.1
2018-Feb-18 03:00N 47°35' W 122°21'0 0.0
2018-Feb-18 02:18N 47°35' W 122°21'0 0.0
2018-Feb-18 02:01N 47°35' W 122°21'0 0.2
2018-Feb-18 01:30N 47°35' W 122°21'1 1.0
2018-Feb-18 00:34N 47°34' W 122°21'0 0.0
2018-Feb-18 00:29N 47°34' W 122°21'0 0.0
2018-Feb-17 22:43N 47°34' W 122°21'0 0.0
2018-Feb-17 22:22N 47°34' W 122°21'0 0.1
2018-Feb-17 21:57N 47°34' W 122°21'0 0.0
2018-Feb-17 21:12N 47°34' W 122°21'0 0.0
2018-Feb-17 20:48N 47°34' W 122°21'0 0.1
2018-Feb-17 20:28N 47°34' W 122°21'0 0.1
2018-Feb-17 19:48N 47°34' W 122°21'0 0.0
2018-Feb-17 19:30N 47°34' W 122°21'0 0.0
2018-Feb-17 18:59N 47°34' W 122°21'0 0.0
2018-Feb-17 18:29N 47°34' W 122°21'0 0.0
2018-Feb-17 17:53N 47°34' W 122°21'0 0.0
2018-Feb-17 16:46N 47°34' W 122°21'0 0.0
2018-Feb-17 15:36N 47°34' W 122°21'0 0.0
2018-Feb-17 15:27N 47°34' W 122°21'0 0.0
2018-Feb-17 14:59N 47°34' W 122°21'0 0.1
2018-Feb-17 14:23N 47°34' W 122°21'1 1.9
2018-Feb-17 14:00N 47°35' W 122°21'1 1.5
2018-Feb-17 13:30N 47°34' W 122°21'0 0.0
2018-Feb-17 12:58N 47°34' W 122°21'0 0.0
2018-Feb-17 12:22N 47°34' W 122°21'0 0.0
2018-Feb-17 11:59N 47°34' W 122°21'0 0.0
2018-Feb-17 11:24N 47°34' W 122°21'0 0.0
2018-Feb-17 10:59N 47°34' W 122°21'0 0.0
2018-Feb-17 10:30N 47°34' W 122°21'0 0.0
2018-Feb-17 10:00N 47°34' W 122°21'0 0.0
2018-Feb-17 09:25N 47°34' W 122°21'0 0.0
2018-Feb-17 08:58N 47°34' W 122°21'0 0.1
2018-Feb-17 08:28N 47°34' W 122°21'0 0.1
2018-Feb-17 07:58N 47°34' W 122°21'0 0.0
2018-Feb-17 07:31N 47°34' W 122°21'0 0.0
2018-Feb-17 07:00N 47°34' W 122°21'0 0.0
2018-Feb-17 06:30N 47°34' W 122°21'0 0.0
2018-Feb-17 05:59N 47°34' W 122°21'0 0.1
2018-Feb-17 05:30N 47°34' W 122°21'0 0.1
2018-Feb-17 05:01N 47°34' W 122°21'0 0.1
2018-Feb-17 04:31N 47°34' W 122°21'0 0.1
2018-Feb-17 04:01N 47°34' W 122°21'0 0.0
2018-Feb-17 03:24N 47°34' W 122°21'0 0.0
2018-Feb-17 03:00N 47°34' W 122°21'0 0.1
2018-Feb-17 02:30N 47°34' W 122°21'0 0.1
2018-Feb-17 01:59N 47°34' W 122°21'0 0.0
2018-Feb-17 01:29N 47°34' W 122°21'0 0.0
2018-Feb-17 00:59N 47°34' W 122°21'0 0.1
2018-Feb-17 00:31N 47°34' W 122°21'0 0.1
2018-Feb-16 23:56N 47°34' W 122°21'0 0.0
2018-Feb-16 23:30N 47°34' W 122°21'1 1.6
2018-Feb-16 23:00N 47°35' W 122°21'1 1.3
2018-Feb-16 22:25N 47°34' W 122°21'0 0.2
2018-Feb-16 21:58N 47°34' W 122°21'0 0.2
2018-Feb-16 21:29N 47°34' W 122°21'1 1.3
2018-Feb-16 21:01N 47°35' W 122°21'0 1.0
2018-Feb-16 20:30N 47°36' W 122°21'0 0.3
2018-Feb-16 20:01N 47°35' W 122°21'0 0.0
2018-Feb-16 19:29N 47°35' W 122°21'0 0.0
2018-Feb-16 18:59N 47°35' W 122°21'0 0.1
2018-Feb-16 18:30N 47°35' W 122°21'0 0.1
2018-Feb-16 18:01N 47°35' W 122°21'0 0.0
2018-Feb-16 17:30N 47°35' W 122°21'0 0.0
2018-Feb-16 17:00N 47°35' W 122°21'0 0.0
2018-Feb-16 16:30N 47°35' W 122°21'0 0.0
2018-Feb-16 16:00N 47°35' W 122°21'0 0.0
2018-Feb-16 15:31N 47°35' W 122°21'0 0.0
2018-Feb-16 15:00N 47°35' W 122°21'0 0.0
2018-Feb-16 14:30N 47°35' W 122°21'0 0.0
2018-Feb-16 14:00N 47°35' W 122°21'0 0.0
2018-Feb-16 13:31N 47°35' W 122°21'0 0.0
2018-Feb-16 13:01N 47°35' W 122°21'0 0.0
2018-Feb-16 12:29N 47°35' W 122°21'0 0.0
2018-Feb-16 12:01N 47°35' W 122°21'0 0.0
2018-Feb-16 11:31N 47°35' W 122°21'0 0.1
2018-Feb-16 11:00N 47°35' W 122°21'0 0.1
2018-Feb-16 10:30N 47°35' W 122°21'0 0.0
2018-Feb-16 10:01N 47°35' W 122°21'0 0.0
2018-Feb-16 09:30N 47°35' W 122°21'0 0.0
2018-Feb-16 09:00N 47°35' W 122°21'0 0.1
2018-Feb-16 08:30N 47°35' W 122°21'0 0.0
2018-Feb-16 08:01N 47°35' W 122°21'0 0.1
2018-Feb-16 07:30N 47°35' W 122°21'0 0.0
2018-Feb-16 07:00N 47°35' W 122°21'0 0.0
2018-Feb-16 06:30N 47°35' W 122°21'0 0.2
2018-Feb-16 06:00N 47°36' W 122°21'0 0.2
2018-Feb-16 05:30N 47°35' W 122°21'0 0.1
2018-Feb-16 04:59N 47°35' W 122°21'0 0.1
2018-Feb-16 04:30N 47°35' W 122°21'0 0.0
2018-Feb-16 04:00N 47°35' W 122°21'0 0.0
2018-Feb-16 03:31N 47°35' W 122°21'0 0.0
2018-Feb-16 02:59N 47°35' W 122°21'0 0.0
2018-Feb-16 02:30N 47°35' W 122°21'0 0.0
2018-Feb-16 02:00N 47°35' W 122°21'0 0.0
2018-Feb-16 01:29N 47°35' W 122°21'0 0.0
2018-Feb-16 01:01N 47°35' W 122°21'0 0.0
2018-Feb-16 00:30N 47°35' W 122°21'0 0.0
2018-Feb-16 00:00N 47°35' W 122°21'0 0.0
2018-Feb-15 23:30N 47°35' W 122°21'0 0.1
2018-Feb-15 23:00N 47°35' W 122°21'0 0.1
2018-Feb-15 22:30N 47°35' W 122°21'0 0.1
2018-Feb-15 22:01N 47°35' W 122°21'0 0.1
2018-Feb-15 21:30N 47°35' W 122°21'0 0.1
2018-Feb-15 21:00N 47°35' W 122°21'0 0.1
2018-Feb-15 20:15N 47°35' W 122°21'0 0.0
2018-Feb-15 20:01N 47°35' W 122°21'0 0.0
2018-Feb-15 19:30N 47°35' W 122°21'0 0.0
2018-Feb-15 18:59N 47°35' W 122°21'0 0.0
2018-Feb-15 18:28N 47°35' W 122°21'  
Track history (hours):
 
Tides and Currents Weather Stations Pressure Air Temp Water Temp Dewpoint Dewpoint Depression Visibility Wind Speed Wind Dir Waves Ship Positions

Olympic Scout

Owner: Harley Marine Services, Inc., Seattle, WA. More information available from US FCC via Universal Licensing System and Coast Guard Vessel Documentation Center.

Last reported at 2018-Feb-25 18:00 UTC. Time now 2018-Feb-25 18:11 UTC.
Position N 47°17' W 122°25'.

Length 31 m; draft 0.3 m.

Type: Tug. MMSI: 366998440.

Date/timePositionNaut miles runAvg speedWind from/ knotsBaromVisibWave heightAir tempDewpointWater temp
2018-Feb-25 18:00N 47°17' W 122°25'0 0.0
2018-Feb-25 17:30N 47°17' W 122°25'0 0.0
2018-Feb-25 17:00N 47°17' W 122°25'0 0.0
2018-Feb-25 16:30N 47°17' W 122°25'0 0.0
2018-Feb-25 16:00N 47°17' W 122°25'0 0.0
2018-Feb-25 15:30N 47°17' W 122°25'0 0.0
2018-Feb-25 15:00N 47°17' W 122°25'0 0.0
2018-Feb-25 14:30N 47°17' W 122°25'0 0.1
2018-Feb-25 14:00N 47°17' W 122°25'0 0.1
2018-Feb-25 13:30N 47°17' W 122°25'0 0.0
2018-Feb-25 13:00N 47°17' W 122°25'1 3.0
2018-Feb-25 12:30N 47°17' W 122°27'1 2.6
2018-Feb-25 12:00N 47°17' W 122°25'0 0.4
2018-Feb-25 11:30N 47°17' W 122°25'0 0.1
2018-Feb-25 10:55N 47°17' W 122°25'1 2.2
2018-Feb-25 10:30N 47°17' W 122°26'2 3.1
2018-Feb-25 10:00N 47°18' W 122°27'2 4.5
2018-Feb-25 09:30N 47°20' W 122°27'3 5.1
2018-Feb-25 09:00N 47°22' W 122°24'2 4.4
2018-Feb-25 08:30N 47°24' W 122°23'3 5.9
2018-Feb-25 08:00N 47°27' W 122°25'3 5.7
2018-Feb-25 07:30N 47°29' W 122°26'3 5.6
2018-Feb-25 07:00N 47°32' W 122°27'3 5.3
2018-Feb-25 06:30N 47°35' W 122°26'2 5.0
2018-Feb-25 06:00N 47°36' W 122°23'1 2.6
2018-Feb-25 05:30N 47°35' W 122°21'0 0.1
2018-Feb-25 05:00N 47°35' W 122°21'0 0.0
2018-Feb-25 03:39N 47°35' W 122°21'0 0.2
2018-Feb-25 03:24N 47°35' W 122°21'0 0.0
2018-Feb-25 02:57N 47°35' W 122°21'0 0.0
2018-Feb-25 02:28N 47°35' W 122°21'1 2.0
2018-Feb-25 02:00N 47°34' W 122°21'0 0.1
2018-Feb-25 01:30N 47°34' W 122°21'0 0.0
2018-Feb-25 01:00N 47°34' W 122°21'0 0.0
2018-Feb-25 00:30N 47°34' W 122°21'0 0.0
2018-Feb-25 00:00N 47°34' W 122°21'0 0.0
2018-Feb-24 23:30N 47°34' W 122°21'0 0.0
2018-Feb-24 22:59N 47°34' W 122°21'0 0.0
2018-Feb-24 22:30N 47°34' W 122°21'0 0.0
2018-Feb-24 22:00N 47°34' W 122°21'0 0.0
2018-Feb-24 21:30N 47°34' W 122°21'0 0.0
2018-Feb-24 21:00N 47°34' W 122°21'0 0.0
2018-Feb-24 20:30N 47°34' W 122°21'0 0.1
2018-Feb-24 19:06N 47°35' W 122°21'0 2.8
2018-Feb-24 18:59N 47°35' W 122°21'1 1.5
2018-Feb-24 18:30N 47°36' W 122°21'0 0.3
2018-Feb-24 18:00N 47°35' W 122°21'0 0.2
2018-Feb-24 17:22N 47°35' W 122°21'0 0.8
2018-Feb-24 17:00N 47°36' W 122°21'2 3.1
2018-Feb-24 16:31N 47°36' W 122°23'3 6.1
2018-Feb-24 16:00N 47°34' W 122°26'4 7.3
2018-Feb-24 15:30N 47°30' W 122°25'4 7.6
2018-Feb-24 15:00N 47°26' W 122°23'4 7.5
2018-Feb-24 14:31N 47°23' W 122°21'4 7.3
2018-Feb-24 14:00N 47°20' W 122°25'3 6.3
2018-Feb-24 13:30N 47°18' W 122°27'2 4.6
2018-Feb-24 13:00N 47°16' W 122°24'1 1.0
2018-Feb-24 12:30N 47°16' W 122°24'0 0.5
2018-Feb-24 11:59N 47°16' W 122°23'0 0.0
2018-Feb-24 11:05N 47°16' W 122°23'0 0.4
2018-Feb-24 10:59N 47°16' W 122°23'0 0.0
2018-Feb-24 09:44N 47°16' W 122°23'0 0.0
2018-Feb-24 09:29N 47°16' W 122°23'0 0.0
2018-Feb-24 08:59N 47°16' W 122°23'0 0.0
2018-Feb-24 08:23N 47°16' W 122°23'0 0.1
2018-Feb-24 07:59N 47°16' W 122°23'0 0.1
2018-Feb-24 07:29N 47°16' W 122°23'0 0.0
2018-Feb-24 06:59N 47°16' W 122°23'0 0.1
2018-Feb-24 06:17N 47°16' W 122°23'0 0.1
2018-Feb-24 05:59N 47°16' W 122°23'0 0.1
2018-Feb-24 05:23N 47°16' W 122°23'0 0.1
2018-Feb-24 04:59N 47°16' W 122°23'0 0.1
2018-Feb-24 04:26N 47°16' W 122°23'0 0.1
2018-Feb-24 03:59N 47°16' W 122°23'0 0.0
2018-Feb-24 03:29N 47°16' W 122°23'0 0.0
2018-Feb-24 02:59N 47°16' W 122°23'0 0.6
2018-Feb-24 02:30N 47°16' W 122°24'0 0.2
2018-Feb-24 02:00N 47°16' W 122°23'2 3.3
2018-Feb-24 01:30N 47°17' W 122°25'0 0.2
2018-Feb-24 01:00N 47°17' W 122°25'0 0.5
2018-Feb-24 00:30N 47°17' W 122°26'2 0.8
2018-Feb-23 21:26N 47°16' W 122°23'0 0.1
2018-Feb-23 20:53N 47°16' W 122°23'1 0.6
2018-Feb-23 20:01N 47°16' W 122°24'0 5.5
2018-Feb-23 20:00N 47°16' W 122°24'0 0.9
2018-Feb-23 19:30N 47°16' W 122°23'0 0.0
2018-Feb-23 18:44N 47°16' W 122°23'0 0.0
2018-Feb-23 18:27N 47°16' W 122°23'0 0.0
2018-Feb-23 18:00N 47°16' W 122°23'0 0.0
2018-Feb-23 17:29N 47°16' W 122°23'0 0.0
2018-Feb-23 16:58N 47°16' W 122°23'0 0.0
2018-Feb-23 16:27N 47°16' W 122°23'0 0.0
2018-Feb-23 15:58N 47°16' W 122°23'0 0.0
2018-Feb-23 15:19N 47°16' W 122°23'0 0.0
2018-Feb-23 14:40N 47°16' W 122°23'0 0.0
2018-Feb-23 14:15N 47°16' W 122°23'0 0.3
2018-Feb-23 13:57N 47°16' W 122°23'1 2.1
2018-Feb-23 13:25N 47°16' W 122°24'1 0.5
2018-Feb-23 12:11N 47°17' W 122°23'0 0.1
2018-Feb-23 11:54N 47°17' W 122°23'0 0.0
2018-Feb-23 11:24N 47°17' W 122°23'0 0.0
2018-Feb-23 10:59N 47°17' W 122°23'0 0.0
2018-Feb-23 10:22N 47°17' W 122°23'0 0.0
2018-Feb-23 08:39N 47°17' W 122°23'1 0.1
2018-Feb-23 01:58N 47°17' W 122°25'1 3.1
2018-Feb-23 01:30N 47°16' W 122°23'1 0.5
2018-Feb-22 23:44N 47°16' W 122°24'1 3.3
2018-Feb-22 23:29N 47°16' W 122°23'1 1.4
2018-Feb-22 22:51N 47°16' W 122°24'0 0.0
2018-Feb-22 22:15N 47°16' W 122°24'0 0.1
2018-Feb-22 21:58N 47°16' W 122°24'0 0.1
2018-Feb-22 21:24N 47°16' W 122°24'0 0.1
2018-Feb-22 21:00N 47°16' W 122°24'0 0.0
2018-Feb-22 20:30N 47°16' W 122°24'0 0.1
2018-Feb-22 19:59N 47°16' W 122°24'0 0.0
2018-Feb-22 19:30N 47°16' W 122°24'1 1.5
2018-Feb-22 18:55N 47°16' W 122°23'0 0.0
2018-Feb-22 11:35N 47°16' W 122°23'0 4.0
2018-Feb-22 11:30N 47°16' W 122°23'1 1.9
2018-Feb-22 10:54N 47°17' W 122°25'0 0.0
2018-Feb-22 10:30N 47°17' W 122°25'0 0.0
2018-Feb-22 10:00N 47°17' W 122°25'0 0.0
2018-Feb-22 09:30N 47°17' W 122°25'0 0.0
2018-Feb-22 09:00N 47°17' W 122°25'0 0.0
2018-Feb-22 08:30N 47°17' W 122°25'0 0.0
2018-Feb-22 08:00N 47°17' W 122°25'0 0.0
2018-Feb-22 07:30N 47°17' W 122°25'0 0.0
2018-Feb-22 07:00N 47°17' W 122°25'0 0.0
2018-Feb-22 06:30N 47°17' W 122°25'0 0.0
2018-Feb-22 06:00N 47°17' W 122°25'0 0.0
2018-Feb-22 05:30N 47°17' W 122°25'0 0.0
2018-Feb-22 05:00N 47°17' W 122°25'0 0.0
2018-Feb-22 04:30N 47°17' W 122°25'0 0.0
2018-Feb-22 04:00N 47°17' W 122°25'0 0.1
2018-Feb-22 03:30N 47°17' W 122°25'2 3.1
2018-Feb-22 03:00N 47°16' W 122°23'2 1.8
2018-Feb-22 01:44N 47°17' W 122°25'1 3.7
2018-Feb-22 01:24N 47°16' W 122°25'0 0.0
2018-Feb-22 00:57N 47°16' W 122°25'1 3.0
2018-Feb-22 00:30N 47°16' W 122°23'0 0.0
2018-Feb-22 00:00N 47°16' W 122°23'0 0.0
2018-Feb-21 23:30N 47°16' W 122°23'0 0.0
2018-Feb-21 23:00N 47°16' W 122°23'0 0.0
2018-Feb-21 22:30N 47°16' W 122°23'0 0.0
2018-Feb-21 22:00N 47°16' W 122°23'0 0.0
2018-Feb-21 21:30N 47°16' W 122°23'0 0.0
2018-Feb-21 21:00N 47°16' W 122°23'0 0.0
2018-Feb-21 20:30N 47°16' W 122°23'0 0.0
2018-Feb-21 19:58N 47°16' W 122°23'0 0.0
2018-Feb-21 19:27N 47°16' W 122°23'0 0.0
2018-Feb-21 18:47N 47°16' W 122°23'0 0.0
2018-Feb-21 17:49N 47°16' W 122°23'0 0.0
2018-Feb-21 17:27N 47°16' W 122°23'0 0.0
2018-Feb-21 17:00N 47°16' W 122°23'0 0.0
2018-Feb-21 16:30N 47°16' W 122°23'0 0.1
2018-Feb-21 15:56N 47°16' W 122°23'0 0.1
2018-Feb-21 15:29N 47°16' W 122°23'0 0.0
2018-Feb-21 15:00N 47°16' W 122°23'0 0.0
2018-Feb-21 14:30N 47°16' W 122°23'0 0.0
2018-Feb-21 14:00N 47°16' W 122°23'2 3.5
2018-Feb-21 13:30N 47°17' W 122°25'1 2.9
2018-Feb-21 13:00N 47°16' W 122°26'1 2.7
2018-Feb-21 12:30N 47°17' W 122°25'2 1.8
2018-Feb-21 11:32N 47°16' W 122°23'0 0.0
2018-Feb-21 11:30N 47°16' W 122°23'0 0.0
2018-Feb-21 08:58N 47°16' W 122°23'0 0.0
2018-Feb-21 08:28N 47°16' W 122°23'0 0.0
2018-Feb-21 07:52N 47°16' W 122°23'0 0.0
2018-Feb-21 07:23N 47°16' W 122°23'0 0.0
2018-Feb-21 06:37N 47°16' W 122°23'1 4.0
2018-Feb-21 06:30N 47°16' W 122°24'2 2.6
2018-Feb-21 05:49N 47°15' W 122°26'0 1.4
2018-Feb-21 05:30N 47°16' W 122°26'1 2.2
2018-Feb-21 05:00N 47°17' W 122°26'2 1.4
2018-Feb-21 03:24N 47°16' W 122°23'1 3.6
2018-Feb-21 03:00N 47°16' W 122°25'1 1.0
2018-Feb-21 02:03N 47°17' W 122°25'0 3.1
2018-Feb-21 01:56N 47°17' W 122°25'1 2.6
2018-Feb-21 01:30N 47°16' W 122°25'0 0.6
2018-Feb-21 01:00N 47°16' W 122°25'2 0.3
2018-Feb-20 19:54N 47°16' W 122°23'0 0.0
2018-Feb-20 17:32N 47°16' W 122°23'0 0.2
2018-Feb-20 17:16N 47°16' W 122°23'0 0.0
2018-Feb-20 16:57N 47°16' W 122°23'0 0.0
2018-Feb-20 14:32N 47°16' W 122°23'0 0.1
2018-Feb-20 14:26N 47°16' W 122°23'0 0.0
2018-Feb-20 13:45N 47°16' W 122°23'0 0.0
2018-Feb-20 13:21N 47°16' W 122°23'0 0.0
2018-Feb-20 12:52N 47°16' W 122°23'0 0.1
2018-Feb-20 12:20N 47°16' W 122°23'0 0.0
2018-Feb-20 11:47N 47°16' W 122°23'0 0.0
2018-Feb-20 11:17N 47°16' W 122°23'0 0.0
2018-Feb-20 11:01N 47°16' W 122°23'0 0.1
2018-Feb-20 10:29N 47°16' W 122°23'0 0.0
2018-Feb-20 10:01N 47°16' W 122°23'0 0.7
2018-Feb-20 09:29N 47°16' W 122°23'2 0.3
2018-Feb-20 04:08N 47°17' W 122°25'0 2.0
2018-Feb-20 04:00N 47°17' W 122°26'1 0.4
2018-Feb-20 01:28N 47°16' W 122°25'0 0.0
2018-Feb-20 00:59N 47°16' W 122°25'0 0.0
2018-Feb-20 00:14N 47°16' W 122°25'0 0.0
2018-Feb-19 22:09N 47°16' W 122°25'1 4.7
2018-Feb-19 21:59N 47°17' W 122°25'1 1.3
2018-Feb-19 21:24N 47°16' W 122°25'0 0.0
2018-Feb-19 21:00N 47°16' W 122°25'0 0.0
2018-Feb-19 20:30N 47°16' W 122°25'0 0.0
2018-Feb-19 20:00N 47°16' W 122°25'0 0.0
2018-Feb-19 19:29N 47°16' W 122°25'0 0.0
2018-Feb-19 19:00N 47°16' W 122°25'0 0.0
2018-Feb-19 18:30N 47°16' W 122°25'0 0.0
2018-Feb-19 17:42N 47°16' W 122°25'0 0.0
2018-Feb-19 17:25N 47°16' W 122°25'0 0.0
2018-Feb-19 16:54N 47°16' W 122°25'0 0.0
2018-Feb-19 16:30N 47°16' W 122°25'0 0.0
2018-Feb-19 15:58N 47°16' W 122°25'0 0.0
2018-Feb-19 15:29N 47°16' W 122°25'0 0.0
2018-Feb-19 15:00N 47°16' W 122°25'0 0.0
2018-Feb-19 14:27N 47°16' W 122°25'0 0.0
2018-Feb-19 14:00N 47°16' W 122°25'0 0.0
2018-Feb-19 13:25N 47°16' W 122°25'0 0.0
2018-Feb-19 12:59N 47°16' W 122°25'0 0.0
2018-Feb-19 12:30N 47°16' W 122°25'0 0.0
2018-Feb-19 11:57N 47°16' W 122°25'0 0.0
2018-Feb-19 11:30N 47°16' W 122°25'0 0.0
2018-Feb-19 11:00N 47°16' W 122°25'0 0.0
2018-Feb-19 10:29N 47°16' W 122°25'0 0.0
2018-Feb-19 10:00N 47°16' W 122°25'0 0.0
2018-Feb-19 09:30N 47°16' W 122°25'0 0.0
2018-Feb-19 09:01N 47°16' W 122°25'0 0.0
2018-Feb-19 08:30N 47°16' W 122°25'0 0.0
2018-Feb-19 08:00N 47°16' W 122°25'0 0.1
2018-Feb-19 07:30N 47°16' W 122°25'0 0.4
2018-Feb-19 06:58N 47°16' W 122°25'0 0.7
2018-Feb-19 06:30N 47°16' W 122°25'0 0.2
2018-Feb-19 05:53N 47°16' W 122°25'1 1.7
2018-Feb-19 05:30N 47°17' W 122°25'0 0.7
2018-Feb-19 05:00N 47°17' W 122°25'0 0.1
2018-Feb-19 04:29N 47°16' W 122°25'0 0.3
2018-Feb-19 04:01N 47°17' W 122°25'0 0.0
2018-Feb-19 03:30N 47°17' W 122°25'0 0.0
2018-Feb-19 03:00N 47°17' W 122°25'0 0.0
2018-Feb-19 02:30N 47°17' W 122°25'0 0.0
2018-Feb-19 02:01N 47°17' W 122°25'0 0.0
2018-Feb-19 01:30N 47°17' W 122°25'0 0.0
2018-Feb-19 01:00N 47°17' W 122°25'0 0.0
2018-Feb-19 00:28N 47°17' W 122°25'0 0.0
2018-Feb-19 00:00N 47°17' W 122°25'0 0.0
2018-Feb-18 23:29N 47°17' W 122°25'0 0.0
2018-Feb-18 22:59N 47°17' W 122°25'0 0.0
2018-Feb-18 22:29N 47°17' W 122°25'0 0.0
2018-Feb-18 22:00N 47°17' W 122°25'0 0.0
2018-Feb-18 21:30N 47°17' W 122°25'0 0.0
2018-Feb-18 20:57N 47°17' W 122°25'0 0.0
2018-Feb-18 20:30N 47°17' W 122°25'0 0.0
2018-Feb-18 20:01N 47°17' W 122°25'0 0.0
2018-Feb-18 19:21N 47°17' W 122°25'0 0.0
2018-Feb-18 18:51N 47°17' W 122°25'0 0.1
2018-Feb-18 18:28N 47°17' W 122°25'0 0.1
2018-Feb-18 17:49N 47°17' W 122°25'1 3.1
2018-Feb-18 17:31N 47°17' W 122°26'2 3.6
2018-Feb-18 17:00N 47°19' W 122°28'3 5.0
2018-Feb-18 16:31N 47°21' W 122°26'3 5.4
2018-Feb-18 16:00N 47°23' W 122°23'3 5.0
2018-Feb-18 15:30N 47°25' W 122°23'3 5.8
2018-Feb-18 15:01N 47°28' W 122°25'3 5.5
2018-Feb-18 14:30N 47°30' W 122°26'3 5.6
2018-Feb-18 14:01N 47°33' W 122°27'3 5.6
2018-Feb-18 13:31N 47°36' W 122°25'3 5.1
2018-Feb-18 13:00N 47°36' W 122°21'0 0.9
2018-Feb-18 12:29N 47°35' W 122°21'0 0.0
2018-Feb-18 12:01N 47°35' W 122°21'1 1.9
2018-Feb-18 11:30N 47°34' W 122°21'0 0.1
2018-Feb-18 11:00N 47°34' W 122°21'0 0.0
2018-Feb-18 10:30N 47°34' W 122°21'0 0.0
2018-Feb-18 10:01N 47°34' W 122°21'0 0.0
2018-Feb-18 09:31N 47°34' W 122°21'0 0.0
2018-Feb-18 09:00N 47°34' W 122°21'0 0.0
2018-Feb-18 08:30N 47°34' W 122°21'0 0.0
2018-Feb-18 08:00N 47°34' W 122°21'0 0.1
2018-Feb-18 07:30N 47°34' W 122°21'0 0.1
2018-Feb-18 07:00N 47°34' W 122°21'0 0.0
2018-Feb-18 06:31N 47°34' W 122°21'0 0.0
2018-Feb-18 06:00N 47°34' W 122°21'0 0.0
2018-Feb-18 05:31N 47°34' W 122°21'1 1.8
2018-Feb-18 05:00N 47°35' W 122°21'0 0.0
2018-Feb-18 04:29N 47°35' W 122°21'0 0.0
2018-Feb-18 03:57N 47°35' W 122°21'0 0.1
2018-Feb-18 03:28N 47°35' W 122°21'0 0.1
2018-Feb-18 03:00N 47°35' W 122°21'0 0.0
2018-Feb-18 02:18N 47°35' W 122°21'0 0.0
2018-Feb-18 02:01N 47°35' W 122°21'0 0.2
2018-Feb-18 01:30N 47°35' W 122°21'1 1.0
2018-Feb-18 00:34N 47°34' W 122°21'0 0.0
2018-Feb-18 00:29N 47°34' W 122°21'0 0.0
2018-Feb-17 22:43N 47°34' W 122°21'0 0.0
2018-Feb-17 22:22N 47°34' W 122°21'0 0.1
2018-Feb-17 21:57N 47°34' W 122°21'0 0.0
2018-Feb-17 21:12N 47°34' W 122°21'0 0.0
2018-Feb-17 20:48N 47°34' W 122°21'0 0.1
2018-Feb-17 20:28N 47°34' W 122°21'0 0.1
2018-Feb-17 19:48N 47°34' W 122°21'0 0.0
2018-Feb-17 19:30N 47°34' W 122°21'0 0.0
2018-Feb-17 18:59N 47°34' W 122°21'0 0.0
2018-Feb-17 18:29N 47°34' W 122°21'0 0.0
2018-Feb-17 17:53N 47°34' W 122°21'0 0.0
2018-Feb-17 16:46N 47°34' W 122°21'0 0.0
2018-Feb-17 15:36N 47°34' W 122°21'0 0.0
2018-Feb-17 15:27N 47°34' W 122°21'0 0.0
2018-Feb-17 14:59N 47°34' W 122°21'0 0.1
2018-Feb-17 14:23N 47°34' W 122°21'1 1.9
2018-Feb-17 14:00N 47°35' W 122°21'1 1.5
2018-Feb-17 13:30N 47°34' W 122°21'0 0.0
2018-Feb-17 12:58N 47°34' W 122°21'0 0.0
2018-Feb-17 12:22N 47°34' W 122°21'0 0.0
2018-Feb-17 11:59N 47°34' W 122°21'0 0.0
2018-Feb-17 11:24N 47°34' W 122°21'0 0.0
2018-Feb-17 10:59N 47°34' W 122°21'0 0.0
2018-Feb-17 10:30N 47°34' W 122°21'0 0.0
2018-Feb-17 10:00N 47°34' W 122°21'0 0.0
2018-Feb-17 09:25N 47°34' W 122°21'0 0.0
2018-Feb-17 08:58N 47°34' W 122°21'0 0.1
2018-Feb-17 08:28N 47°34' W 122°21'0 0.1
2018-Feb-17 07:58N 47°34' W 122°21'0 0.0
2018-Feb-17 07:31N 47°34' W 122°21'0 0.0
2018-Feb-17 07:00N 47°34' W 122°21'0 0.0
2018-Feb-17 06:30N 47°34' W 122°21'0 0.0
2018-Feb-17 05:59N 47°34' W 122°21'0 0.1
2018-Feb-17 05:30N 47°34' W 122°21'0 0.1
2018-Feb-17 05:01N 47°34' W 122°21'0 0.1
2018-Feb-17 04:31N 47°34' W 122°21'0 0.1
2018-Feb-17 04:01N 47°34' W 122°21'0 0.0
2018-Feb-17 03:24N 47°34' W 122°21'0 0.0
2018-Feb-17 03:00N 47°34' W 122°21'0 0.1
2018-Feb-17 02:30N 47°34' W 122°21'0 0.1
2018-Feb-17 01:59N 47°34' W 122°21'0 0.0
2018-Feb-17 01:29N 47°34' W 122°21'0 0.0
2018-Feb-17 00:59N 47°34' W 122°21'0 0.1
2018-Feb-17 00:31N 47°34' W 122°21'0 0.1
2018-Feb-16 23:56N 47°34' W 122°21'0 0.0
2018-Feb-16 23:30N 47°34' W 122°21'1 1.6
2018-Feb-16 23:00N 47°35' W 122°21'1 1.3
2018-Feb-16 22:25N 47°34' W 122°21'0 0.2
2018-Feb-16 21:58N 47°34' W 122°21'0 0.2
2018-Feb-16 21:29N 47°34' W 122°21'1 1.3
2018-Feb-16 21:01N 47°35' W 122°21'0 1.0
2018-Feb-16 20:30N 47°36' W 122°21'0 0.3
2018-Feb-16 20:01N 47°35' W 122°21'0 0.0
2018-Feb-16 19:29N 47°35' W 122°21'0 0.0
2018-Feb-16 18:59N 47°35' W 122°21'0 0.1
2018-Feb-16 18:30N 47°35' W 122°21'0 0.1
2018-Feb-16 18:01N 47°35' W 122°21'0 0.0
2018-Feb-16 17:30N 47°35' W 122°21'0 0.0
2018-Feb-16 17:00N 47°35' W 122°21'0 0.0
2018-Feb-16 16:30N 47°35' W 122°21'0 0.0
2018-Feb-16 16:00N 47°35' W 122°21'0 0.0
2018-Feb-16 15:31N 47°35' W 122°21'0 0.0
2018-Feb-16 15:00N 47°35' W 122°21'0 0.0
2018-Feb-16 14:30N 47°35' W 122°21'0 0.0
2018-Feb-16 14:00N 47°35' W 122°21'0 0.0
2018-Feb-16 13:31N 47°35' W 122°21'0 0.0
2018-Feb-16 13:01N 47°35' W 122°21'0 0.0
2018-Feb-16 12:29N 47°35' W 122°21'0 0.0
2018-Feb-16 12:01N 47°35' W 122°21'0 0.0
2018-Feb-16 11:31N 47°35' W 122°21'0 0.1
2018-Feb-16 11:00N 47°35' W 122°21'0 0.1
2018-Feb-16 10:30N 47°35' W 122°21'0 0.0
2018-Feb-16 10:01N 47°35' W 122°21'0 0.0
2018-Feb-16 09:30N 47°35' W 122°21'0 0.0
2018-Feb-16 09:00N 47°35' W 122°21'0 0.1
2018-Feb-16 08:30N 47°35' W 122°21'0 0.0
2018-Feb-16 08:01N 47°35' W 122°21'0 0.1
2018-Feb-16 07:30N 47°35' W 122°21'0 0.0
2018-Feb-16 07:00N 47°35' W 122°21'0 0.0
2018-Feb-16 06:30N 47°35' W 122°21'0 0.2
2018-Feb-16 06:00N 47°36' W 122°21'0 0.2
2018-Feb-16 05:30N 47°35' W 122°21'0 0.1
2018-Feb-16 04:59N 47°35' W 122°21'0 0.1
2018-Feb-16 04:30N 47°35' W 122°21'0 0.0
2018-Feb-16 04:00N 47°35' W 122°21'0 0.0
2018-Feb-16 03:31N 47°35' W 122°21'0 0.0
2018-Feb-16 02:59N 47°35' W 122°21'0 0.0
2018-Feb-16 02:30N 47°35' W 122°21'0 0.0
2018-Feb-16 02:00N 47°35' W 122°21'0 0.0
2018-Feb-16 01:29N 47°35' W 122°21'0 0.0
2018-Feb-16 01:01N 47°35' W 122°21'0 0.0
2018-Feb-16 00:30N 47°35' W 122°21'0 0.0
2018-Feb-16 00:00N 47°35' W 122°21'0 0.0
2018-Feb-15 23:30N 47°35' W 122°21'0 0.1
2018-Feb-15 23:00N 47°35' W 122°21'0 0.1
2018-Feb-15 22:30N 47°35' W 122°21'0 0.1
2018-Feb-15 22:01N 47°35' W 122°21'0 0.1
2018-Feb-15 21:30N 47°35' W 122°21'0 0.1
2018-Feb-15 21:00N 47°35' W 122°21'0 0.1
2018-Feb-15 20:15N 47°35' W 122°21'0 0.0
2018-Feb-15 20:01N 47°35' W 122°21'0 0.0
2018-Feb-15 19:30N 47°35' W 122°21'0 0.0
2018-Feb-15 18:59N 47°35' W 122°21'0 0.0
2018-Feb-15 18:28N 47°35' W 122°21'  

Dump ship's entire track history